Time;durP1;ratioP1;P1;durP2;ratioP2;P2;SDS_P1;SDS_P2;PMS_P1;PMS_P2;Temp;Humidity;BMP_temperature;BMP_pressure;BME280_temperature;BME280_humidity;BME280_pressure;Samples;Min_cycle;Max_cycle;Signal;HPM_P1;HPM_P2
2022/09/22 00:00:27;;;;;;;;;;;;;;;10.10;62.56;96006.88;5072366;28;20005;-62
2022/09/22 00:02:55;;;;;;;;;;;;;;;10.13;62.07;96004.47;5072753;28;20013;-62
2022/09/22 00:05:22;;;;;;;;;;;;;;;10.02;62.80;96005.59;5071831;28;20017;-62
2022/09/22 00:07:48;;;;;;;;;;;;;;;9.99;62.52;96013.34;5072655;28;20477;-62
2022/09/22 00:10:14;;;;;;;;;;;;;;;10.03;62.96;96011.72;5070445;28;20017;-62
2022/09/22 00:12:39;;;;;;;;;;;;;;;9.96;62.92;96017.34;5072726;28;20490;-62
2022/09/22 00:15:04;;;;;;;;;;;;;;;9.98;61.90;96019.72;5070611;28;20013;-62
2022/09/22 00:17:30;;;;;;;;;;;;;;;9.92;62.28;96018.19;5072562;28;20006;-62
2022/09/22 00:19:55;;;;;;;;;;;;;;;9.90;61.94;96013.94;5072152;28;20093;-62
2022/09/22 00:22:21;;;;;;;;;;;;;;;9.87;62.42;96011.03;5072496;28;20472;-64
2022/09/22 00:24:46;;;;;;;;;;;;;;;9.82;62.42;96009.22;5068959;28;20035;-62
2022/09/22 00:27:11;;;;;;;;;;;;;;;9.79;62.08;96014.31;5072303;28;20063;-62
2022/09/22 00:29:36;;;;;;;;;;;;;;;9.75;62.47;96003.44;5071871;28;20010;-63
2022/09/22 00:32:02;;;;;;;;;;;;;;;9.75;62.43;96007.94;5072458;28;20044;-62
2022/09/22 00:34:27;;;;;;;;;;;;;;;9.62;62.58;96015.47;5071342;28;20035;-62
2022/09/22 00:36:53;;;;;;;;;;;;;;;9.64;62.81;96008.03;5071770;28;20480;-62
2022/09/22 00:39:18;;;;;;;;;;;;;;;9.63;63.09;96011.75;5070506;28;20619;-62
2022/09/22 00:41:45;;;;;;;;;;;;;;;9.62;62.59;96006.69;5071048;28;20018;-62
2022/09/22 00:44:25;;;;;;;;;;;;;;;9.58;62.95;95995.84;5072150;28;20492;-62
2022/09/22 00:47:00;;;;;;;;;;;;;;;9.54;63.00;95994.03;5072029;28;20013;-62
2022/09/22 00:49:48;;;;;;;;;;;;;;;9.53;62.91;95995.09;5068873;28;20013;-63
2022/09/22 00:52:15;;;;;;;;;;;;;;;9.50;63.21;95985.00;5057193;28;20009;-63
2022/09/22 00:54:41;;;;;;;;;;;;;;;9.49;62.88;95975.47;5067887;28;20018;-62
2022/09/22 00:57:18;;;;;;;;;;;;;;;9.44;62.73;95975.50;5071792;28;20001;-62
2022/09/22 00:59:44;;;;;;;;;;;;;;;9.43;62.69;95976.56;5070460;28;20040;-62
2022/09/22 01:02:09;;;;;;;;;;;;;;;9.36;62.93;95974.19;5071672;28;20490;-62
2022/09/22 01:04:34;;;;;;;;;;;;;;;9.34;63.48;95971.03;5070064;28;20010;-62
2022/09/22 01:07:01;;;;;;;;;;;;;;;9.30;62.90;95970.00;5070025;28;20036;-62
2022/09/22 01:09:27;;;;;;;;;;;;;;;9.28;63.27;95967.63;5070300;28;20013;-62
2022/09/22 01:11:52;;;;;;;;;;;;;;;9.25;62.91;95968.16;5087500;28;20465;-62
2022/09/22 01:14:36;;;;;;;;;;;;;;;9.20;62.71;95962.09;5090275;28;20054;-62
2022/09/22 01:17:11;;;;;;;;;;;;;;;9.18;63.31;95956.28;5091856;28;20008;-62
2022/09/22 01:19:39;;;;;;;;;;;;;;;9.14;63.11;95952.56;5078860;28;20012;-62
2022/09/22 01:22:23;;;;;;;;;;;;;;;9.09;63.43;95953.41;5071160;28;20084;-62
2022/09/22 01:25:00;;;;;;;;;;;;;;;9.08;63.43;95951.81;5068860;28;20009;-62
2022/09/22 01:27:45;;;;;;;;;;;;;;;9.01;63.38;95948.69;5071047;28;20009;-62
2022/09/22 01:30:12;;;;;;;;;;;;;;;9.02;63.53;95939.66;5068801;28;20013;-62
2022/09/22 01:32:48;;;;;;;;;;;;;;;9.04;63.95;95942.81;5071033;28;20091;-62
2022/09/22 01:35:26;;;;;;;;;;;;;;;9.04;63.82;95940.94;5073155;28;20043;-62
2022/09/22 01:38:03;;;;;;;;;;;;;;;9.06;64.27;95943.34;5069121;28;20009;-62
2022/09/22 01:40:46;;;;;;;;;;;;;;;9.05;63.62;95942.53;5073087;28;20082;-62
2022/09/22 01:43:26;;;;;;;;;;;;;;;9.10;64.07;95941.72;5091314;28;20001;-62
2022/09/22 01:45:52;;;;;;;;;;;;;;;9.03;64.50;95938.56;5091147;28;20012;-62
2022/09/22 01:48:28;;;;;;;;;;;;;;;9.05;64.03;95936.44;5074978;28;20196;-62
2022/09/22 01:50:57;;;;;;;;;;;;;;;9.05;63.96;95929.25;5069433;28;20025;-62
2022/09/22 01:53:23;;;;;;;;;;;;;;;9.04;63.51;95937.50;5070656;28;20408;-62
2022/09/22 01:55:51;;;;;;;;;;;;;;;9.00;63.15;95936.47;5068934;28;20013;-62
2022/09/22 01:58:19;;;;;;;;;;;;;;;8.97;63.77;95934.38;5070199;28;20010;-62
2022/09/22 02:00:48;;;;;;;;;;;;;;;8.97;63.99;95939.69;5070519;28;20691;-62
2022/09/22 02:03:34;;;;;;;;;;;;;;;8.91;63.72;95941.56;5070453;28;20126;-61
2022/09/22 02:06:03;;;;;;;;;;;;;;;8.90;63.62;95939.94;5067900;28;20389;-62
2022/09/22 02:08:31;;;;;;;;;;;;;;;8.86;63.68;95944.25;5068981;28;20063;-62
2022/09/22 02:10:59;;;;;;;;;;;;;;;8.83;63.94;95939.47;5068342;28;20013;-62
2022/09/22 02:13:25;;;;;;;;;;;;;;;8.85;64.06;95940.81;5070548;28;20529;-62
2022/09/22 02:15:59;;;;;;;;;;;;;;;8.84;63.75;95941.84;5068470;28;20013;-62
2022/09/22 02:18:28;;;;;;;;;;;;;;;8.83;64.02;95942.13;5068427;28;20037;-62
2022/09/22 02:20:53;;;;;;;;;;;;;;;8.78;63.44;95945.59;5070297;28;20017;-64
2022/09/22 02:23:18;;;;;;;;;;;;;;;8.75;63.81;95947.97;5070352;28;20013;-62
2022/09/22 02:25:44;;;;;;;;;;;;;;;8.75;63.74;95937.38;5067496;28;20100;-62
2022/09/22 02:28:12;;;;;;;;;;;;;;;8.74;63.65;95935.78;5070161;28;20369;-62
2022/09/22 02:30:38;;;;;;;;;;;;;;;8.75;63.41;95940.03;5068569;28;20013;-62
2022/09/22 02:33:03;;;;;;;;;;;;;;;8.74;63.62;95939.25;5069034;28;20389;-62
2022/09/22 02:35:31;;;;;;;;;;;;;;;8.73;63.45;95940.31;5069335;28;20473;-62
2022/09/22 02:37:59;;;;;;;;;;;;;;;8.72;63.21;95936.06;5068946;28;20013;-61
2022/09/22 02:40:51;;;;;;;;;;;;;;;8.72;63.21;95944.03;5067016;28;20100;-61
2022/09/22 02:43:19;;;;;;;;;;;;;;;8.65;63.44;95948.03;5038210;28;20501;-61
2022/09/22 02:45:48;;;;;;;;;;;;;;;8.63;63.42;95950.16;5068808;28;20010;-61
2022/09/22 02:48:17;;;;;;;;;;;;;;;8.58;63.63;95948.31;5069604;28;20509;-62
2022/09/22 02:50:42;;;;;;;;;;;;;;;8.60;63.54;95956.81;5068339;28;20470;-62
2022/09/22 02:53:12;;;;;;;;;;;;;;;8.56;63.67;95956.56;5069558;28;20022;-61
2022/09/22 02:55:37;;;;;;;;;;;;;;;8.57;63.68;95952.03;5068092;28;20440;-61
2022/09/22 02:58:03;;;;;;;;;;;;;;;8.54;63.53;95961.31;5069015;28;20068;-61
2022/09/22 03:00:28;;;;;;;;;;;;;;;8.50;63.54;95946.25;5070705;28;20017;-61
2022/09/22 03:02:53;;;;;;;;;;;;;;;8.45;63.55;95957.66;5072832;28;20488;-61
2022/09/22 03:05:18;;;;;;;;;;;;;;;8.45;63.59;95956.88;5072859;28;20013;-61
2022/09/22 03:07:43;;;;;;;;;;;;;;;8.40;63.69;95960.31;5074434;28;20083;-62
2022/09/22 03:10:09;;;;;;;;;;;;;;;8.41;63.45;95953.97;5072968;28;20175;-63
2022/09/22 03:12:34;;;;;;;;;;;;;;;8.40;63.64;95959.53;5087568;28;20056;-63
2022/09/22 03:15:00;;;;;;;;;;;;;;;8.38;63.38;95945.75;5077463;28;20154;-62
2022/09/22 03:17:25;;;;;;;;;;;;;;;8.33;63.66;95952.59;5072489;28;20021;-61
2022/09/22 03:19:51;;;;;;;;;;;;;;;8.31;63.60;95952.09;5072126;28;20018;-61
2022/09/22 03:22:16;;;;;;;;;;;;;;;8.30;63.92;95950.50;5072970;28;20013;-62
2022/09/22 03:24:41;;;;;;;;;;;;;;;8.32;63.60;95951.03;5073776;28;20028;-61
2022/09/22 03:27:07;;;;;;;;;;;;;;;8.28;63.50;95949.97;5081223;28;20018;-61
2022/09/22 03:29:32;;;;;;;;;;;;;;;8.28;63.47;95949.19;5093449;28;20404;-61
2022/09/22 03:31:57;;;;;;;;;;;;;;;8.23;63.35;95946.53;5074166;28;20009;-61
2022/09/22 03:34:22;;;;;;;;;;;;;;;8.20;63.52;95953.19;5073304;28;20496;-61
2022/09/22 03:36:47;;;;;;;;;;;;;;;8.17;63.49;95947.63;5073474;28;20005;-61
2022/09/22 03:39:13;;;;;;;;;;;;;;;8.15;63.13;95944.44;5073000;28;20010;-61
2022/09/22 03:41:39;;;;;;;;;;;;;;;8.11;63.32;95944.19;5092571;28;20048;-62
2022/09/22 03:44:05;;;;;;;;;;;;;;;8.09;63.20;95946.31;5093417;28;20013;-61
2022/09/22 03:46:30;;;;;;;;;;;;;;;8.05;63.53;95943.41;5093365;28;20005;-61
2022/09/22 03:48:55;;;;;;;;;;;;;;;8.04;63.08;95946.34;5085901;28;20013;-61
2022/09/22 03:51:21;;;;;;;;;;;;;;;8.01;63.20;95939.69;5073145;28;20037;-61
2022/09/22 03:53:46;;;;;;;;;;;;;;;7.98;63.61;95937.56;5072820;28;20032;-61
2022/09/22 03:56:12;;;;;;;;;;;;;;;7.96;63.19;95937.06;5070717;28;20104;-62
2022/09/22 03:58:38;;;;;;;;;;;;;;;7.92;63.19;95937.84;5072343;28;20477;-61
2022/09/22 04:01:04;;;;;;;;;;;;;;;7.92;63.59;95938.66;5072709;28;20060;-61
2022/09/22 04:03:30;;;;;;;;;;;;;;;7.90;63.28;95938.13;5072778;28;20014;-61
2022/09/22 04:05:55;;;;;;;;;;;;;;;7.90;63.37;95937.34;5070733;28;20530;-61
2022/09/22 04:08:21;;;;;;;;;;;;;;;7.90;63.20;95934.69;5072309;28;20381;-61
2022/09/22 04:10:46;;;;;;;;;;;;;;;7.88;63.05;95928.84;5069246;28;20021;-61
2022/09/22 04:13:12;;;;;;;;;;;;;;;7.85;63.44;95938.13;5070024;28;20009;-61
2022/09/22 04:15:37;;;;;;;;;;;;;;;7.84;63.48;95927.81;5070185;28;20012;-61
2022/09/22 04:18:02;;;;;;;;;;;;;;;7.85;63.03;95924.09;5071939;28;20017;-61
2022/09/22 04:20:29;;;;;;;;;;;;;;;7.85;63.11;95932.03;5071986;28;20005;-61
2022/09/22 04:22:54;;;;;;;;;;;;;;;7.80;63.32;95927.53;5072474;28;20112;-61
2022/09/22 04:25:19;;;;;;;;;;;;;;;7.77;63.30;95923.56;5070298;28;20100;-61
2022/09/22 04:27:44;;;;;;;;;;;;;;;7.76;62.93;95929.94;5069875;28;20103;-61
2022/09/22 04:30:10;;;;;;;;;;;;;;;7.75;63.43;95924.91;5070558;28;20396;-61
2022/09/22 04:32:35;;;;;;;;;;;;;;;7.74;62.90;95928.63;5070942;28;20032;-61
2022/09/22 04:35:00;;;;;;;;;;;;;;;7.71;62.89;95929.94;5070988;28;20112;-62
2022/09/22 04:37:26;;;;;;;;;;;;;;;7.74;63.44;95932.06;5071257;28;20116;-61
2022/09/22 04:39:53;;;;;;;;;;;;;;;7.74;63.44;95932.06;5071597;28;20009;-62
2022/09/22 04:42:18;;;;;;;;;;;;;;;7.74;63.29;95940.00;5068937;28;20060;-62
2022/09/22 04:44:44;;;;;;;;;;;;;;;7.73;63.40;95933.13;5070745;28;20040;-61
2022/09/22 04:47:10;;;;;;;;;;;;;;;7.73;63.06;95942.91;5070923;28;20013;-61
2022/09/22 04:49:35;;;;;;;;;;;;;;;7.70;63.16;95944.22;5070199;28;20017;-61
2022/09/22 04:52:00;;;;;;;;;;;;;;;7.68;63.36;95946.38;5071926;28;20385;-61
2022/09/22 04:54:26;;;;;;;;;;;;;;;7.68;63.16;95942.94;5070410;28;20108;-61
2022/09/22 04:56:51;;;;;;;;;;;;;;;7.70;63.79;95949.53;5069637;28;20064;-61
2022/09/22 04:59:16;;;;;;;;;;;;;;;7.63;63.55;95956.16;5071103;28;20106;-61
2022/09/22 05:01:41;;;;;;;;;;;;;;;7.67;63.33;95960.63;5070208;28;20090;-61
2022/09/22 05:04:07;;;;;;;;;;;;;;;7.60;63.89;95960.13;5068960;28;20066;-61
2022/09/22 05:06:32;;;;;;;;;;;;;;;7.65;63.50;95967.28;5070346;28;20094;-61
2022/09/22 05:08:57;;;;;;;;;;;;;;;7.69;63.68;95971.00;5068948;28;20017;-61
2022/09/22 05:11:23;;;;;;;;;;;;;;;7.71;63.47;95966.22;5069943;28;20021;-61
2022/09/22 05:13:49;;;;;;;;;;;;;;;7.75;63.36;95973.34;5069111;28;20019;-62
2022/09/22 05:16:15;;;;;;;;;;;;;;;7.76;63.31;95967.00;5070160;28;20010;-61
2022/09/22 05:18:40;;;;;;;;;;;;;;;7.81;63.22;95969.66;5070014;28;20108;-61
2022/09/22 05:21:06;;;;;;;;;;;;;;;7.81;63.31;95969.66;5070317;28;20434;-61
2022/09/22 05:23:31;;;;;;;;;;;;;;;7.27;62.69;95880.19;5069427;28;20009;-61
2022/09/22 05:25:57;;;;;;;;;;;;;;;7.88;62.86;95971.22;5069767;28;20005;-61
2022/09/22 05:28:23;;;;;;;;;;;;;;;7.88;62.96;95961.41;5062752;28;20013;-62
2022/09/22 05:30:49;;;;;;;;;;;;;;;7.91;62.49;95966.19;5071069;28;20063;-61
2022/09/22 05:33:14;;;;;;;;;;;;;;;7.93;62.97;95963.28;5070164;28;20079;-61
2022/09/22 05:35:40;;;;;;;;;;;;;;;7.97;62.73;95967.00;5083117;28;20508;-61
2022/09/22 05:38:05;;;;;;;;;;;;;;;8.00;62.53;95969.13;5060324;28;20015;-61
2022/09/22 05:40:30;;;;;;;;;;;;;;;8.06;62.44;95971.47;5070381;28;20063;-61
2022/09/22 05:42:56;;;;;;;;;;;;;;;8.12;62.41;95977.56;5067719;28;20100;-61
2022/09/22 05:45:21;;;;;;;;;;;;;;;8.16;62.35;95975.97;5070719;28;20145;-64
2022/09/22 05:47:46;;;;;;;;;;;;;;;8.19;62.43;95977.28;5069942;28;20087;-64
2022/09/22 05:50:13;;;;;;;;;;;;;;;8.20;62.36;95976.25;5069000;28;20009;-64
2022/09/22 05:52:38;;;;;;;;;;;;;;;8.26;62.27;95980.47;5070829;28;20005;-65
2022/09/22 05:55:04;;;;;;;;;;;;;;;8.30;62.43;95984.97;5070905;28;20015;-64
2022/09/22 05:57:30;;;;;;;;;;;;;;;8.34;62.47;95979.91;5068720;28;20041;-64
2022/09/22 05:59:55;;;;;;;;;;;;;;;8.40;62.46;95984.19;5070523;28;20501;-64
2022/09/22 06:02:22;;;;;;;;;;;;;;;8.48;62.44;95982.81;5069908;28;20024;-64
2022/09/22 06:04:47;;;;;;;;;;;;;;;8.54;62.47;95982.53;5070641;28;20385;-63
2022/09/22 06:07:13;;;;;;;;;;;;;;;8.66;62.32;95986.75;5069357;28;20571;-64
2022/09/22 06:09:38;;;;;;;;;;;;;;;8.78;62.17;95980.06;5069616;28;20017;-63
2022/09/22 06:12:03;;;;;;;;;;;;;;;8.91;62.11;95980.56;5068433;28;20049;-62
2022/09/22 06:14:28;;;;;;;;;;;;;;;8.99;62.02;95980.00;5068027;28;20060;-63
2022/09/22 06:16:54;;;;;;;;;;;;;;;9.11;61.99;95975.16;5069772;28;20009;-64
2022/09/22 06:19:20;;;;;;;;;;;;;;;9.24;61.80;95976.41;5067958;28;20013;-63
2022/09/22 06:21:45;;;;;;;;;;;;;;;9.36;62.46;95988.28;5070832;28;20005;-67
2022/09/22 06:24:10;;;;;;;;;;;;;;;9.50;62.41;95983.16;5071023;28;20096;-62
2022/09/22 06:26:35;;;;;;;;;;;;;;;9.58;61.55;95974.59;5069175;28;20058;-63
2022/09/22 06:29:01;;;;;;;;;;;;;;;9.72;61.84;95984.59;5082874;28;20376;-61
2022/09/22 06:31:26;;;;;;;;;;;;;;;9.79;62.02;95985.06;5089166;28;20009;-61
2022/09/22 06:33:53;;;;;;;;;;;;;;;9.98;61.43;95978.03;5075324;28;20009;-62
2022/09/22 06:36:31;;;;;;;;;;;;;;;10.09;61.78;95976.84;5070119;28;20011;-62
2022/09/22 06:38:57;;;;;;;;;;;;;;;10.21;62.17;95984.44;5068480;28;20490;-63
2022/09/22 06:41:23;;;;;;;;;;;;;;;10.32;61.26;95974.53;5069066;28;20088;-63
2022/09/22 06:43:49;;;;;;;;;;;;;;;10.44;61.17;95974.13;5068054;28;20009;-62
2022/09/22 06:46:17;;;;;;;;;;;;;;;10.53;61.32;95983.09;5067768;28;20013;-63
2022/09/22 06:48:42;;;;;;;;;;;;;;;10.65;60.68;95968.31;5067975;28;20017;-62
2022/09/22 06:51:08;;;;;;;;;;;;;;;10.78;60.90;95972.16;5067014;28;20013;-62
2022/09/22 06:53:33;;;;;;;;;;;;;;;10.91;61.12;95966.16;5068349;28;20013;-63
2022/09/22 06:56:00;;;;;;;;;;;;;;;11.04;60.98;95966.53;5068133;28;20108;-63
2022/09/22 06:58:27;;;;;;;;;;;;;;;11.10;60.92;95962.72;5066874;28;20040;-63
2022/09/22 07:00:53;;;;;;;;;;;;;;;11.11;60.54;95965.09;5069800;28;20005;-63
2022/09/22 07:03:20;;;;;;;;;;;;;;;11.33;60.35;95966.41;5068217;28;20512;-62
2022/09/22 07:05:56;;;;;;;;;;;;;;;11.42;59.67;95960.16;5067378;28;20604;-63
2022/09/22 07:08:22;;;;;;;;;;;;;;;11.55;59.76;95952.50;5067812;28;20058;-63
2022/09/22 07:10:58;;;;;;;;;;;;;;;11.63;59.28;95962.50;5067518;28;20017;-63
2022/09/22 07:13:24;;;;;;;;;;;;;;;11.76;58.99;95951.09;5068737;28;20416;-63
2022/09/22 07:15:49;;;;;;;;;;;;;;;11.79;58.99;95949.72;5068133;28;20016;-65
2022/09/22 07:18:15;;;;;;;;;;;;;;;11.97;58.58;95946.25;5069097;28;20415;-63
2022/09/22 07:20:40;;;;;;;;;;;;;;;12.10;58.26;95948.16;5069301;28;20010;-63
2022/09/22 07:23:17;;;;;;;;;;;;;;;12.23;58.05;95946.59;5068262;28;20009;-63
2022/09/22 07:25:43;;;;;;;;;;;;;;;12.33;57.75;95940.28;5069274;28;20033;-64
2022/09/22 07:31:15;;;;;;;;;;;;;;;12.60;56.89;95955.53;5069371;28;20012;-65
2022/09/22 07:33:41;;;;;;;;;;;;;;;12.67;56.60;95954.03;5067250;28;20511;-64
2022/09/22 07:36:17;;;;;;;;;;;;;;;12.74;55.84;95949.13;5067780;28;20045;-64
2022/09/22 07:38:44;;;;;;;;;;;;;;;12.86;55.71;95959.28;5068883;28;20009;-64
2022/09/22 07:41:11;;;;;;;;;;;;;;;12.88;55.05;95954.44;5068934;28;20032;-65
2022/09/22 07:43:37;;;;;;;;;;;;;;;13.04;54.92;95949.56;5066782;28;20797;-64
2022/09/22 07:46:02;;;;;;;;;;;;;;;13.08;54.53;95947.88;5068719;28;20020;-64
2022/09/22 07:48:41;;;;;;;;;;;;;;;13.18;54.49;95945.00;5070757;28;20013;-64
2022/09/22 07:51:07;;;;;;;;;;;;;;;13.30;54.45;95947.16;5071282;28;20010;-65
2022/09/22 07:53:32;;;;;;;;;;;;;;;13.30;53.77;95949.84;5070687;28;20009;-64
2022/09/22 07:56:26;;;;;;;;;;;;;;;13.17;52.52;95948.75;5074287;28;20013;-64
2022/09/22 07:58:52;;;;;;;;;;;;;;;13.39;52.53;95955.25;5069943;28;20017;-64
2022/09/22 08:01:19;;;;;;;;;;;;;;;13.51;52.25;95950.97;5072066;28;20036;-65
2022/09/22 08:03:45;;;;;;;;;;;;;;;13.63;52.36;95947.75;5071567;28;20060;-65
2022/09/22 08:06:11;;;;;;;;;;;;;;;13.66;51.64;95949.81;5073039;28;20442;-64
2022/09/22 08:08:41;;;;;;;;;;;;;;;13.61;50.92;95947.25;5071780;28;20112;-64
2022/09/22 08:11:13;;;;;;;;;;;;;;;13.62;50.68;95946.19;5071974;28;20112;-65
2022/09/22 08:13:40;;;;;;;;;;;;;;;13.79;51.00;95943.63;5061150;28;20006;-65
2022/09/22 08:16:06;;;;;;;;;;;;;;;13.81;50.11;95956.69;5072926;28;20677;-64
2022/09/22 08:18:32;;;;;;;;;;;;;;;13.43;51.45;95953.56;5070570;28;20017;-65
2022/09/22 08:21:02;;;;;;;;;;;;;;;13.60;51.22;95952.91;5072256;28;20009;-64
2022/09/22 08:23:28;;;;;;;;;;;;;;;13.56;50.49;95968.75;5070696;28;20120;-64
2022/09/22 08:25:53;;;;;;;;;;;;;;;13.94;50.50;95950.50;5071925;28;20088;-65
2022/09/22 08:28:19;;;;;;;;;;;;;;;14.25;50.44;95945.16;5069241;28;20108;-64
2022/09/22 08:30:47;;;;;;;;;;;;;;;14.33;49.78;95940.97;5070771;28;20053;-65
2022/09/22 08:33:12;;;;;;;;;;;;;;;13.75;49.47;95952.56;5070992;28;20020;-64
2022/09/22 08:35:49;;;;;;;;;;;;;;;14.18;48.55;95942.16;5071153;28;20005;-65
2022/09/22 08:38:15;;;;;;;;;;;;;;;14.49;48.81;95941.38;5071570;28;20043;-65
2022/09/22 08:40:42;;;;;;;;;;;;;;;14.55;48.39;95948.16;5070379;28;20072;-65
2022/09/22 08:43:09;;;;;;;;;;;;;;;14.65;47.69;95941.75;5069764;28;20014;-64
2022/09/22 08:45:37;;;;;;;;;;;;;;;14.76;47.34;95940.38;5071714;28;20009;-63
2022/09/22 08:53:55;;;;;;;;;;;;;;;14.68;46.35;95933.88;5071066;28;20059;-64
2022/09/22 08:56:28;;;;;;;;;;;;;;;14.73;46.08;95938.28;5071583;28;20458;-64
2022/09/22 08:59:07;;;;;;;;;;;;;;;14.99;45.35;95941.03;5069543;28;20100;-64
2022/09/22 09:01:41;;;;;;;;;;;;;;;14.98;45.32;95932.22;5070683;28;20009;-64
2022/09/22 09:04:25;;;;;;;;;;;;;;;15.29;44.57;95926.75;5071251;28;20431;-64
2022/09/22 09:07:17;;;;;;;;;;;;;;;15.38;44.45;95934.78;5070078;28;20009;-64
2022/09/22 09:09:49;;;;;;;;;;;;;;;15.68;44.13;95935.00;5065586;28;20032;-64
2022/09/22 09:12:26;;;;;;;;;;;;;;;15.27;44.01;95933.53;5069323;28;20888;-65
2022/09/22 09:15:07;;;;;;;;;;;;;;;15.63;44.02;95933.25;5071163;28;20011;-64
2022/09/22 09:17:34;;;;;;;;;;;;;;;15.69;43.39;95934.66;5070570;28;20465;-64
2022/09/22 09:20:15;;;;;;;;;;;;;;;15.62;43.69;95930.88;5069306;28;20016;-65
2022/09/22 09:22:42;;;;;;;;;;;;;;;15.56;43.65;95928.34;5070143;28;20013;-64
2022/09/22 09:25:14;;;;;;;;;;;;;;;15.38;44.70;95926.75;5069701;28;20432;-67
2022/09/22 09:27:42;;;;;;;;;;;;;;;15.47;43.42;95930.22;5067675;28;20461;-64
2022/09/22 09:30:16;;;;;;;;;;;;;;;15.39;44.02;95928.31;5068647;28;20504;-64
2022/09/22 09:32:46;;;;;;;;;;;;;;;15.67;44.77;95928.06;5070799;28;20008;-65
2022/09/22 09:35:15;;;;;;;;;;;;;;;15.50;43.76;95928.81;5070705;28;20373;-65
2022/09/22 09:37:47;;;;;;;;;;;;;;;15.90;43.81;95925.97;5069284;28;20009;-65
2022/09/22 09:40:18;;;;;;;;;;;;;;;16.02;43.62;95931.47;5069209;28;20045;-65
2022/09/22 09:42:46;;;;;;;;;;;;;;;16.41;43.70;95921.56;5068541;28;20053;-65
2022/09/22 09:45:13;;;;;;;;;;;;;;;16.43;43.22;95927.41;5068921;28;20009;-64
2022/09/22 09:47:39;;;;;;;;;;;;;;;16.26;42.78;95920.19;5068846;28;20497;-65
2022/09/22 09:50:05;;;;;;;;;;;;;;;16.66;42.63;95920.69;5069324;28;20056;-65
2022/09/22 09:52:32;;;;;;;;;;;;;;;16.73;42.51;95914.81;5070478;28;20048;-65
2022/09/22 09:54:59;;;;;;;;;;;;;;;16.39;41.31;95916.53;5070388;28;20078;-65
2022/09/22 09:57:26;;;;;;;;;;;;;;;16.72;42.01;95913.25;5068468;28;20023;-65
2022/09/22 10:03:13;;;;;;;;;;;;;;;16.65;41.67;95908.34;5070362;28;20043;-65
2022/09/22 10:05:38;;;;;;;;;;;;;;;16.80;41.71;95909.75;5068748;28;20009;-65
2022/09/22 10:08:15;;;;;;;;;;;;;;;16.75;42.18;95907.25;5069025;28;20013;-65
2022/09/22 10:10:40;;;;;;;;;;;;;;;16.40;42.71;95911.94;5069485;28;20053;-65
2022/09/22 10:13:05;;;;;;;;;;;;;;;16.52;41.97;95899.41;5068423;28;20099;-65
2022/09/22 10:15:32;;;;;;;;;;;;;;;16.48;42.65;95901.19;5070107;28;20006;-65
2022/09/22 10:17:57;;;;;;;;;;;;;;;16.57;42.26;95901.91;5069075;28;20016;-65
2022/09/22 10:20:22;;;;;;;;;;;;;;;15.93;44.50;95893.94;5068350;28;20009;-65
2022/09/22 10:22:48;;;;;;;;;;;;;;;15.87;43.55;95897.88;5068725;28;20108;-65
2022/09/22 10:25:18;;;;;;;;;;;;;;;16.40;42.46;95885.88;5069991;28;20009;-64
2022/09/22 10:27:57;;;;;;;;;;;;;;;16.03;43.45;95898.16;5068091;28;20013;-64
2022/09/22 10:30:24;;;;;;;;;;;;;;;16.27;43.53;95894.91;5055939;28;20555;-64
2022/09/22 10:33:13;;;;;;;;;;;;;;;16.32;43.33;95884.78;5049634;28;20404;-65
2022/09/22 10:35:38;;;;;;;;;;;;;;;16.59;43.36;95883.59;5043286;28;20014;-64
2022/09/22 10:38:13;;;;;;;;;;;;;;;16.48;42.97;95879.69;5059354;28;20025;-64
2022/09/22 10:40:39;;;;;;;;;;;;;;;16.63;41.54;95891.75;5069644;28;20100;-64
2022/09/22 10:43:10;;;;;;;;;;;;;;;16.72;40.20;95891.75;5068983;28;20009;-65
2022/09/22 10:45:41;;;;;;;;;;;;;;;16.92;40.65;95891.00;5069883;28;20005;-64
2022/09/22 10:48:26;;;;;;;;;;;;;;;17.02;41.67;95884.47;5068486;28;20186;-64
2022/09/22 10:51:08;;;;;;;;;;;;;;;16.94;40.64;95878.06;5069901;28;20012;-64
2022/09/22 10:53:52;;;;;;;;;;;;;;;17.02;40.41;95884.47;5069413;28;20009;-67
2022/09/22 10:56:38;;;;;;;;;;;;;;;17.21;38.51;95886.72;5069522;28;20170;-64
2022/09/22 10:59:14;;;;;;;;;;;;;;;17.38;38.29;95879.28;5067333;28;20480;-64
2022/09/22 11:01:52;;;;;;;;;;;;;;;17.38;39.32;95883.88;5069686;28;20095;-64
2022/09/22 11:04:37;;;;;;;;;;;;;;;17.45;39.53;95878.75;5069241;28;20009;-64
2022/09/22 11:13:02;;;;;;;;;;;;;;;17.78;38.05;95883.41;5068085;28;20071;-65
2022/09/22 11:15:35;;;;;;;;;;;;;;;17.79;37.77;95874.22;5069735;28;20112;-65
2022/09/22 11:18:03;;;;;;;;;;;;;;;17.95;37.18;95871.69;5068535;28;20063;-65
2022/09/22 11:20:32;;;;;;;;;;;;;;;17.83;35.99;95875.13;5067628;28;20017;-65
2022/09/22 11:23:09;;;;;;;;;;;;;;;18.14;35.20;95863.88;5071871;28;20059;-66
2022/09/22 11:25:42;;;;;;;;;;;;;;;18.12;34.69;95869.59;5072011;28;20384;-64
2022/09/22 11:28:22;;;;;;;;;;;;;;;17.64;36.27;95865.59;5071503;28;20434;-64
2022/09/22 11:30:51;;;;;;;;;;;;;;;18.05;35.95;95868.56;5069630;28;20144;-65
2022/09/22 11:33:25;;;;;;;;;;;;;;;18.11;35.78;95857.22;5072338;28;20033;-66
2022/09/22 11:35:59;;;;;;;;;;;;;;;18.13;35.87;95857.69;5071797;28;20059;-66
2022/09/22 11:38:43;;;;;;;;;;;;;;;18.05;36.29;95855.09;5071396;28;20470;-64
2022/09/22 11:41:28;;;;;;;;;;;;;;;18.22;36.52;95854.09;5072280;28;20536;-67
2022/09/22 11:44:14;;;;;;;;;;;;;;;18.62;40.45;95846.94;5071583;28;20013;-67
2022/09/22 11:47:00;;;;;;;;;;;;;;;18.72;36.76;95850.34;5074386;28;20012;-67
2022/09/22 11:49:25;;;;;;;;;;;;;;;18.94;35.31;95836.41;5039660;28;20181;-65
2022/09/22 11:52:10;;;;;;;;;;;;;;;18.84;34.18;95844.94;5072050;28;20562;-65
2022/09/22 11:54:54;;;;;;;;;;;;;;;18.79;33.60;95839.78;5040819;28;20139;-64
2022/09/22 11:57:22;;;;;;;;;;;;;;;18.80;34.45;95836.75;5072496;28;20010;-63
2022/09/22 11:59:54;;;;;;;;;;;;;;;19.02;34.51;95842.75;5070004;28;20074;-63
2022/09/22 12:02:24;;;;;;;;;;;;;;;19.06;32.81;95830.97;5070522;28;20473;-64
2022/09/22 12:04:53;;;;;;;;;;;;;;;19.60;32.89;95835.94;5072123;28;20067;-63
2022/09/22 12:07:30;;;;;;;;;;;;;;;19.80;31.85;95822.59;5072353;28;20381;-63
2022/09/22 12:10:16;;;;;;;;;;;;;;;19.66;33.32;95829.19;5070595;28;20480;-64
2022/09/22 12:12:47;;;;;;;;;;;;;;;19.57;33.39;95819.66;5070830;28;20010;-63
2022/09/22 12:15:12;;;;;;;;;;;;;;;18.82;35.55;95826.41;5060441;28;20014;-64
2022/09/22 12:17:45;;;;;;;;;;;;;;;18.32;35.40;95830.22;5067064;28;20548;-64
2022/09/22 12:20:27;;;;;;;;;;;;;;;18.53;34.91;95830.13;5071869;28;20006;-63
2022/09/22 12:23:04;;;;;;;;;;;;;;;18.51;34.95;95826.97;5072109;28;20012;-63
2022/09/22 12:25:42;;;;;;;;;;;;;;;19.13;34.26;95816.88;5070996;28;20146;-63
2022/09/22 12:28:15;;;;;;;;;;;;;;;19.04;34.32;95808.16;5071085;28;20500;-63
2022/09/22 12:30:50;;;;;;;;;;;;;;;18.79;35.91;95807.44;5071849;28;20005;-63
2022/09/22 12:33:15;;;;;;;;;;;;;;;18.82;35.55;95818.31;5071373;28;20004;-63
2022/09/22 12:35:42;;;;;;;;;;;;;;;18.63;35.06;95810.81;5070970;28;20499;-63
2022/09/22 12:38:10;;;;;;;;;;;;;;;18.16;35.84;95815.84;5071883;28;20075;-64
2022/09/22 12:40:40;;;;;;;;;;;;;;;18.35;35.39;95815.31;5071761;28;20024;-64
2022/09/22 12:43:12;;;;;;;;;;;;;;;18.26;35.94;95806.53;5069757;28;20146;-64
2022/09/22 12:45:39;;;;;;;;;;;;;;;18.09;37.34;95804.84;5071766;28;20013;-64
2022/09/22 12:48:15;;;;;;;;;;;;;;;17.94;36.34;95806.28;5071882;28;20013;-65
2022/09/22 12:50:41;;;;;;;;;;;;;;;18.34;36.30;95801.06;5071592;28;20005;-65
2022/09/22 12:53:23;;;;;;;;;;;;;;;18.48;35.99;95800.72;5070138;28;20653;-64
2022/09/22 12:55:49;;;;;;;;;;;;;;;18.15;36.24;95798.91;5071474;28;20058;-64
2022/09/22 12:58:17;;;;;;;;;;;;;;;18.36;36.02;95795.31;5069371;28;20018;-65
2022/09/22 13:00:43;;;;;;;;;;;;;;;18.97;35.35;95795.25;5071219;28;20005;-65
2022/09/22 13:03:23;;;;;;;;;;;;;;;18.78;35.26;95800.47;5069215;28;20441;-64
2022/09/22 13:05:51;;;;;;;;;;;;;;;18.64;34.85;95793.50;5071415;28;20011;-63
2022/09/22 13:08:37;;;;;;;;;;;;;;;18.44;35.81;95791.72;5070960;28;20494;-63
2022/09/22 13:11:04;;;;;;;;;;;;;;;18.90;35.02;95787.75;5069866;28;20059;-63
2022/09/22 13:13:32;;;;;;;;;;;;;;;18.34;35.13;95794.88;5069357;28;20424;-64
2022/09/22 13:16:00;;;;;;;;;;;;;;;18.34;35.97;95792.19;5071454;28;20005;-63
2022/09/22 13:18:30;;;;;;;;;;;;;;;18.44;35.20;95794.44;5069328;28;20457;-63
2022/09/22 13:20:56;;;;;;;;;;;;;;;18.16;35.71;95797.78;5069928;28;20009;-64